Aviation Digital Data Service (ADDS)

Output produced by METARs form (0051 UTC 24 May 2022)
found at http://www.aviationweather.gov/metar/data/
 
EDAC 240020Z AUTO 21012KT 9999 // FEW085/// BKN100/// BKN140/// 19/13 Q1001
TAF EDAC 231714Z 2318/2403 11006KT CAVOK 
     PROB30 
     TEMPO 2320/2322 23015G25KT TSRA SCT030CB 
     BECMG 2321/2323 20007KT
       
EDMA 240020Z AUTO 20007KT 9999 BKN060/// BKN083/// BKN100/// 16/14 Q1007
TAF EDMA 231700Z 2318/2403 26008KT 9999 SCT030 
     TEMPO 2318/2403 SHRA BKN030CB
       
EDVE 240020Z AUTO 21008KT 9999 // FEW030/// SCT061/// BKN110/// 18/14 Q0998
TAF EDVE 231700Z 2318/2321 13011KT CAVOK 
     PROB30 
     TEMPO 2320/2321 19015G25KT SHRA BKN045CB
       
EDDW 240020Z AUTO 27014G26KT 9999 BKN011 OVC028 OVC033 15/13 Q0998
TAF EDDW 232300Z 2400/2424 15008KT 9999 BKN012 
     BECMG 2400/2403 25010KT BKN015 
     TEMPO 2400/2403 25020G30KT 
     PROB30 
     TEMPO 2400/2401 4000 SHRA BKN008CB 
     TEMPO 2403/2407 BKN012 
     BECMG 2407/2409 22015G25KT 
     PROB40 
     TEMPO 2412/2417 24020G30KT SHRA BKN020CB 
     BECMG 2418/2420 23005KT
       
ETSB 240020Z AUTO 24008KT 6000 // ////// 11/11 Q1003 ///
TAF ETSB 231307Z 2314/2323 21015KT 9999 NSW FEW020 BKN100 
     TEMPO 2314/2320 21015G30KT 2000 +SHRA BKN005 BKN020CB 
     PROB30 2314/2320 VRB15G35KT 0500 +TSGRRA BKN003CB BY ETGL
       
ETHB 240020Z 28018KT 9999 FEW012 BKN015 15/13 Q0999 RESHRA WHT
TAF ETHB 231300Z 2314/2323 16012G25KT 9999 NSW BKN100 
     TEMPO 2318/2323 18015G28KT 3000 SHRA SCT012 BKN030CB 
     PROB30 2318/2323 VRB15G35KT 1500 TSRA BKN007 BKN030CB
       
ETHC 240020Z 19005KT 9999 BKN017 BKN120 17/16 Q0997 WHT
TAF ETHC 231315Z 2314/2323 12015G25KT 9999 NSW FEW130 SCT160 
     TEMPO 2317/2323 14018G28KT 4000 SHRA SCT015 BKN025CB 
     PROB30 2317/2323 VRB20G35KT 2000 TSRA BKN010 BKN015CB
       
EDLW 240020Z AUTO 23009KT 9999 // FEW009/// OVC027/// 13/12 Q1001
TAF AMD EDLW 232028Z 2320/2418 17010KT 9999 BKN025 
     TEMPO 2320/2322 27020G30KT 3000 SHRA BKN020CB 
     PROB30 
     TEMPO 2320/2322 TSRA BKN014CB 
     BECMG 2322/2324 23012KT 
     TEMPO 2322/2405 BKN008 
     TEMPO 2405/2409 23015G25KT SHRA BKN014CB 
     TEMPO 2409/2416 23015G25KT
       
EDDC 240020Z 16009KT 9999 -RA NSC 19/10 Q1002
TAF EDDC 232300Z 2400/2424 17011KT 9999 FEW045 
     PROB30 
     TEMPO 2400/2402 24015G25KT TSRA BKN030CB 
     BECMG 2405/2407 26010KT 
     BECMG 2416/2418 25004KT
       
EDDL 240020Z AUTO 22006KT 9999 -DZ FEW012 BKN022 OVC043 14/13 Q1002 NOSIG
TAF EDDL 232300Z 2400/2506 25010KT 9999 SCT012 BKN020 
     TEMPO 2400/2404 BKN012 
     TEMPO 2404/2407 SHRA BKN014CB 
     BECMG 2407/2410 24015G25KT 
     PROB40 
     TEMPO 2410/2418 SHRA SCT030CB 
     BECMG 2416/2418 25010KT 
     BECMG 2418/2421 21005KT 
     TEMPO 2421/2503 VRB03KT
       
EDWE 240020Z AUTO 24012KT 9999 // BKN007/// OVC012/// 13/12 Q0998
EDDE 240020Z AUTO 22010KT 9999 FEW032 BKN044 17/14 Q1001
TAF EDDE 232300Z 2400/2424 22012KT 9999 SCT045 
     TEMPO 2400/2402 SHRA SCT025CB 
     PROB30 
     TEMPO 2400/2402 25015G25KT 4000 TSRA 
     TEMPO 2409/2416 26015G25KT 
     BECMG 2417/2419 26004KT
       
ETHS 240020Z AUTO 21007KT 7000 // ////// 17/15 Q0997 ///
TAF ETHS 231315Z 2314/2323 14012G22KT 9999 NSW SCT060 BKN120 
     TEMPO 2319/2323 13010KT 5000 -SHRA BKN015 
     PROB30 2320/2323 15015G35KT 2500 TSRA BKN005CB
       
EDFH 240020Z 24006KT 200V260 9999 BKN020 11/11 Q1004
TAF EDFH 232300Z 2400/2424 26012KT 9999 SCT007 BKN020 
     TEMPO 2403/2407 26020G30KT 3500 SHRA BKN007 BKN012CB 
     TEMPO 2407/2409 BKN014 
     BECMG 2408/2410 26015G25KT 
     TEMPO 2412/2415 SHRA BKN025TCU 
     BECMG 2417/2419 25008KT
       
EDDF 240020Z 22008KT 9999 FEW024 SCT037 16/13 Q1004 NOSIG
TAF EDDF 232300Z 2400/2506 22010KT 9999 BKN025 
     PROB40 
     TEMPO 2406/2408 4000 SHRA BKN020CB 
     BECMG 2409/2411 24015G25KT 
     BECMG 2411/2413 SCT035 
     BECMG 2417/2419 23008KT 
     BECMG 2420/2422 VRB03KT
       
EDNY 240020Z AUTO 23008KT 9999 FEW008/// BKN041/// OVC055/// 16/14 Q1007
TAF EDNY 232300Z 2400/2424 22004KT 9999 SCT040 
     PROB40 
     TEMPO 2405/2411 RA
       
ETHF 240020Z AUTO 25011KT 6000 // ////// 15/12 Q1002 ///
TAF ETHF 231331Z 2314/2323 16007KT 9999 NSW SCT040 BKN130 
     TEMPO 2315/2323 17010G20KT 7000 SHRA SCT020 BKN040CB 
     PROB30 2316/2321 18015G30KT 3000 TSRA SCT015 BKN040CB
       
ETNG 232352Z 23007KT 9999 BKN015 14/13 Q1002
TAF ETNG 232300Z 2400/2415 24008G15KT 9999 SCT025 
     PROB30 
     TEMPO 2403/2407 -RA BKN013 
     BECMG 2407/2409 24012G22KT 
     TEMPO 2410/2415 5000 SHRA SCT030CB BKN040
       
ETIC 232356Z AUTO 18006KT 9999 BKN049 OVC060 15/13 A2967 RMK AO2 SLP039 60000 T01540127 10195 20153 50011 $
TAF AMD ETIC 231930Z 2319/2424 22010G18KT 9999 -DZ VCTS SCT030CB BKN080
QNH2958INS 
     TEMPO 2320/2322 22015G25KT 8000 -TSRA BKN030CB 
     BECMG 2401/2402 25009KT 9999 -DZ BKN010 510004 QNH2962INS 
     BECMG 2409/2410 25009KT 8000 -SHRA BKN030 510004 QNH2974INS 
     BECMG 2413/2414 23009KT 9999 NSW SCT040 BKN080 510004 QNH2977INS TX17/2319Z
TN15/2405Z
       
EDDH 240020Z AUTO 11005KT 9999 -SHRA BKN029 FEW///CB 15/14 Q0996 TEMPO 24015G25KT 4000 SHRA BKN008 BKN025CB
TAF EDDH 232300Z 2400/2506 14010KT 9999 BKN030 
     TEMPO 2400/2406 BKN012 
     PROB40 
     TEMPO 2400/2403 4000 SHRA BKN008CB 
     BECMG 2401/2404 24010KT 
     TEMPO 2403/2405 24015G25KT 
     TEMPO 2408/2418 24015G25KT 
     PROB30 
     TEMPO 2412/2417 SHRA BKN020CB 
     BECMG 2418/2420 24005KT
       
TAF EDHI 231700Z 2318/2321 13010KT CAVOK 
     PROB30 
     TEMPO 2320/2321 19015G25KT TSRA BKN045CB
       
EDDV 240020Z AUTO 27020G34KT 250V310 9999 +SHRA FEW009 BKN017 FEW///CB 17/16 Q0998
TAF EDDV 232300Z 2400/2424 16008KT 9999 BKN020 
     BECMG 2400/2402 25010KT 
     TEMPO 2400/2402 24020G30KT 
     PROB30 
     TEMPO 2401/2404 BKN012 
     TEMPO 2409/2417 24015G25KT 
     PROB30 
     TEMPO 2409/2416 SHRA SCT020CB 
     BECMG 2418/2420 23005KT
       
TAF EDAH 231400Z 2315/2324 13012KT CAVOK
       
EDQM 240020Z AUTO 22012KT 9999 // BKN012/// BKN018/// BKN041/// 15/13 Q1004
TAF EDQM 231700Z 2318/2403 14008KT CAVOK 
     PROB40 
     TEMPO 2318/2322 24015G25KT 4500 SHRA SCT020CB 
     TEMPO 2322/2403 SHRA BKN009 BKN020CB
       
ETIH 232356Z AUTO 21006KT M M OVC065 15/13 A2972 RMK AO2 SLP055 60013 T01470129 10186 20137 50004 RVRNO
TAF ETIH 232209Z 2322/2504 VRB06KT 8000 BR FEW016 QNH2968INS 
     BECMG 2400/2401 24006KT 8000 BR SCT008 510012 QNH2969INS 
     BECMG 2404/2405 VRB06KT 8000 BR BKN008 QNH2971INS 
     BECMG 2407/2408 VRB06KT 8000 -SHRA FEW009 QNH2977INS 
     BECMG 2408/2409 VRB06KT 8000 -SHRA BKN009 QNH2978INS 
     BECMG 2409/2410 26012KT 9000 -SHRA FEW016 QNH2979INS 
     BECMG 2410/2411 25012KT 8000 -SHRA BKN017 QNH2981INS 
     BECMG 2412/2413 25009KT 9000 -SHRA SCT025 QNH2983INS 
     BECMG 2413/2414 25012KT 9000 -SHRA SCT025 QNH2984INS 
     BECMG 2503/2504 VRB06KT 8000 BR FEW025 QNH2994INS TX16/2323Z TN11/2504Z
       
ETNH 240020Z AUTO 11007KT 6000 // ////// 14/13 Q000/ ///
TAF ETNH 231320Z 2314/2323 10015G25KT 9999 NSW SCT100 SCT230 
     BECMG 2322/2323 10012G22KT 5000 -RA BKN015 BY ETGL
       
ETSH 240020Z 16006KT 9999 SCT110 BKN160 BKN260 18/10 Q1000 BLU
TAF ETSH 231459Z 2314/2323 13010G20KT 9999 NSW FEW050 BKN160 CNL 1500
       
ETSI 240020Z AUTO VRB02KT 5000 // ////// 15/13 Q1006 ///
TAF ETSI 231311Z 2314/2323 10008KT 9999 NSW FEW040 BKN240 
     TEMPO 2315/2320 30020G40KT 3000 TSRA FEW015 BKN020CB 
     PROB30 2315/2319 25025G50KT 0800 +TSGR FEW005 BKN015CB
       
EDSB 240020Z AUTO 18005KT 9999 // FEW034/// BKN039/// OVC082/// 16/14 Q1006
TAF EDSB 232300Z 2400/2424 21010KT 9999 BKN030 
     PROB40 
     TEMPO 2405/2408 24015G25KT 4000 SHRA BKN020CB 
     TEMPO 2411/2416 26015G25KT 
     BECMG 2417/2419 26005KT
       
EDVK 232020Z 14010KT 9999 -RA SCT006 15/14 Q0999
TAF EDVK 232000Z 2321/2403 22013KT 9999 BKN025 
     TEMPO 2321/2324 24020G30KT 4000 SHRA BKN012CB
       
EDHK 240020Z AUTO 15007KT 120V180 9000 // BKN044/// OVC076/// 13/12 Q0997
TAF EDHK 231400Z 2315/2319 14010G20KT CAVOK
       
EDDK 240020Z AUTO 23005KT 200V260 9999 BKN019 OVC031 15/12 Q1003 NOSIG
TAF EDDK 232300Z 2400/2506 25010KT 9999 SCT012 BKN020 
     TEMPO 2400/2404 BKN012 
     TEMPO 2404/2407 RA 
     PROB30 
     TEMPO 2404/2407 TSRA BKN012CB 
     TEMPO 2410/2413 24015G25KT 
     PROB30 
     TEMPO 2413/2418 24015G25KT SHRA SCT040CB 
     BECMG 2418/2421 22005KT 
     BECMG 2421/2424 VRB03KT 
     TEMPO 2500/2506 16005KT
       
ETNL 240020Z 11013KT 9999 FEW060 BKN090 17/07 Q0998 BLU
TAF ETNL 232206Z 2323/2411 11015KT 9999 NSW FEW020 BKN060 
     TEMPO 2323/2405 14010KT 4000 RA BKN015 BKN040 
     PROB30 2401/2405 VRB15G25KT 3000 TSRA BKN010 BKN020CB 
     TEMPO 2405/2409 23008KT 5000 -RA BKN010 BKN040 BY ETGL
       
TAF EDTL 231700Z 2318/2324 22010G20KT 9999 SCT040 
     TEMPO 2318/2321 23015G25KT SHRA BKN040CB 
     PROB30 
     TEMPO 2318/2321 23020G35KT 3000 TSRAGR BKN030CB 
     BECMG 2321/2323 20005KT
       
ETHL 240020Z AUTO 23005KT 9000 // ////// 15/14 Q1007 ///
TAF ETHL 231324Z 2314/2323 05005KT 9999 NSW FEW030 BKN220 
     PROB30 2314/2320 VRB15G35KT 2000 TSRAGR SCT010 BKN040CB
       
ETSL 240020Z 19007KT 9999 -RA BKN040 BKN080 15/14 Q1007 BLU
EDDP 240020Z 21009KT 9999 -RA FEW032 19/14 Q1000 TEMPO RA
TAF EDDP 232300Z 2400/2424 18012KT 9999 SCT045 
     TEMPO 2400/2402 SHRA SCT025CB 
     PROB30 
     TEMPO 2400/2402 20015G25KT 4000 TSRA 
     BECMG 2402/2405 25012KT 
     TEMPO 2410/2415 26015G25KT 
     BECMG 2417/2419 26004KT
       
EDHL 240020Z AUTO 12003KT 080V180 9999 // FEW034/// SCT050/// BKN057/// 15/12 Q0997
TAF EDHL 231700Z 2318/2321 13010KT CAVOK
       
TAF EDFM 231700Z 2318/2321 20010G20KT 9999 SCT040 
     TEMPO 2318/2321 23015G25KT SHRA BKN040CB 
     PROB30 
     TEMPO 2318/2321 23020G35KT 3000 TSRAGR BKN030CB
       
EDLN 240020Z AUTO 20004KT 170V250 9999 // BKN009/// OVC014/// 14/13 Q1002 RETS
TAF EDLN 231751Z 2318/2403 17012G22KT 3000 TSRA BKN025CB 
     BECMG 2318/2321 24010KT 9999 NSW 
     TEMPO 2318/2403 BKN008
       
EDDM 240020Z AUTO 20008KT 9999 -RA FEW022 BKN049 15/14 Q1007 RESHRA TEMPO SHRA BKN025TCU
TAF COR EDDM 232346Z 2400/2506 24005KT 9999 SCT030 
     PROB40 
     TEMPO 2400/2405 SHRA BKN025TCU 
     PROB30 
     TEMPO 2405/2413 RA 
     BECMG 2417/2419 VRB03KT
       
EDDG 240020Z 24012KT 9999 FEW016 BKN028 14/12 Q1001 TEMPO BKN010
TAF EDDG 232300Z 2400/2424 26015G25KT 9999 SCT012 BKN020 
     BECMG 2400/2401 23010KT 
     TEMPO 2400/2406 BKN012 
     PROB30 
     TEMPO 2400/2405 BKN008 
     PROB40 
     TEMPO 2406/2409 SHRA BKN014TCU 
     BECMG 2409/2412 24015G25KT 
     TEMPO 2412/2418 26020G30KT SHRA BKN030CB 
     BECMG 2416/2418 23008KT 
     BECMG 2419/2421 VRB03KT
       
ETSN 240020Z 20003KT 9999 BKN060 14/13 Q1006 BLU
TAF ETSN 232206Z 2323/2408 22003KT 9000 NSW BKN080 BKN200 BY ETGL
       
ETHN 240020Z 24010KT 9999 -DZRA BKN041 15/14 Q1005 BLU
TAF ETHN 231302Z 2314/2323 16010KT 9999 NSW BKN100 
     TEMPO 2314/2320 23020G30KT 6000 SHRA SCT040TCU BKN080
       
ETMN 240020Z 26013KT 8000 -RA SCT005 BKN014 15/14 Q0996 GRN
TAF AMD ETMN 231737Z 2317/2323 13015G25KT 9999 NSW SCT050 BKN100 
     BECMG 2319/2321 12015G25KT 8000 -RA FEW010 BKN020 
     TEMPO 2320/2402 14015G30KT 2500 TSRA BKN005 BKN018CB BY ETGG
       
ETNN 240020Z 24003KT 9999 SCT016 BKN030 14/12 Q1002 BLU
TAF ETNN 231305Z 2314/2323 16010KT 9999 NSW FEW030 BKN100 
     TEMPO 2314/2319 24015G35KT 1000 +TSRAGR BKN015CB BY ETGL
       
EDDN 240020Z AUTO 17006KT 9999 SCT031 BKN038 16/14 Q1005
TAF EDDN 232300Z 2400/2424 19006KT CAVOK 
     BECMG 2406/2408 26010KT 
     PROB30 
     TEMPO 2407/2410 SHRA BKN025TCU 
     BECMG 2417/2419 24004KT
       
EDMO 240020Z AUTO 20008KT 9999 // BKN035/// OVC077/// 15/14 Q1008
TAF EDMO 231700Z 2318/2403 24010KT 9999 SCT030 
     PROB40 
     TEMPO 2318/2319 24040G55KT 1800 TSGRRA SCT012 BKN030CB 
     PROB30 
     TEMPO 2319/2321 24015G25KT 3000 TSRA BKN012 SCT020CB 
     TEMPO 2321/2403 SHRA BKN020CB
       
EDLP 240020Z 25009KT 220V280 9999 -RA SCT009 BKN018 OVC021 13/11 Q1002
TAF EDLP 232300Z 2400/2424 26015G25KT 9999 SCT008 BKN020 
     BECMG 2400/2403 23010KT BKN008 
     BECMG 2403/2406 BKN015 
     TEMPO 2406/2409 RA BKN012 
     PROB30 
     TEMPO 2406/2408 TSRA BKN008CB 
     BECMG 2410/2413 25015G25KT 
     TEMPO 2413/2418 SHRA BKN030CB 
     BECMG 2415/2418 25010KT 
     BECMG 2418/2421 21005KT
       
ETAR 240036Z 21006KT 9999 SCT023 BKN029 BKN035 15/13 A2967 RMK AO2A CIG 029V034 BKN029 V SCT CIG 022 RWY08 SLP044 $
TAF AMD ETAR 232355Z 2323/2424 23012KT 9999 BKN020 OVC050 QNH2957INS 
     TEMPO 2323/2404 BKN015 
     BECMG 2403/2404 24010G20KT 8000 -SHRA BKN015 510004 QNH2966INS 
     BECMG 2407/2408 25012G20KT 9999 NSW BKN035 510004 QNH2974INS 
     BECMG 2416/2417 25006KT 9999 FEW100 QNH2982INS TX18/2415Z TN12/2403Z
       
EDDR 240020Z AUTO 22007KT 9999 BKN013 OVC025 OVC037 14/13 Q1005
TAF EDDR 232300Z 2400/2424 24010KT 9999 BKN020 
     PROB40 
     TEMPO 2404/2406 24015G25KT 4000 SHRA BKN007 BKN015CB 
     TEMPO 2406/2408 BKN012 
     BECMG 2409/2411 25015G25KT 
     BECMG 2417/2419 26007KT 
     BECMG 2420/2422 VRB03KT
       
ETNS 240020Z AUTO 09006KT 6000 // ////// 14/12 Q0996 ///
TAF ETNS 231319Z 2314/2323 10015G25KT 9999 NSW SCT100 SCT230 
     BECMG 2322/2323 10012G22KT 5000 -RA BKN015 BY ETGL
       
EDDB 240020Z 13012KT 9999 SCT043 17/08 Q1000 NOSIG
TAF EDDB 232300Z 2400/2424 15008KT 9999 FEW030 
     PROB40 
     TEMPO 2400/2406 RA 
     PROB30 
     TEMPO 2400/2406 25015G30KT TSRA BKN013CB 
     BECMG 2405/2407 25012KT 
     BECMG 2416/2418 26007KT
       
EDTY 240020Z AUTO 29010KT 250V320 9999 // FEW010/// BKN022/// OVC029/// 16/14 Q1006
TAF EDTY 231700Z 2318/2403 10007KT CAVOK 
     PROB40 
     TEMPO 2318/2320 4000 TSRA BKN025CB 
     TEMPO 2320/2402 SHRA BKN020CB
       
EDGS 240020Z AUTO 26010KT 230V290 5000 // SCT002/// OVC004/// 11/11 Q////
TAF AMD EDGS 231823Z 2318/2403 23010KT 9999 TSRA SCT020CB 
     BECMG 2318/2321 NSW 
     TEMPO 2320/2403 BKN004
       
ETAD 240042Z AUTO 23008KT 9999 FEW011 FEW034 BKN050 BKN055 13/12 A2961 RMK AO2 SLP008 $
TAF ETAD 232000Z 2320/2502 25009KT 8000 BR BKN012 BKN020 QNH2957INS 
     BECMG 2400/2401 23010KT 8000 -SHRA BR BKN010 QNH2961INS 
     TEMPO 2401/2404 5000 BR BKN005 
     BECMG 2406/2407 24010G20KT 8000 -SHRA BKN020 QNH2967INS 
     BECMG 2412/2413 23015G25KT 9999 NSW SCT030 BKN050 QNH2977INS 
     BECMG 2420/2421 24007KT 9999 SCT020 BKN025 QNH2989INS TX16/2414Z TN10/2404Z
LAST NO AMDS AFT 2320 NEXT 2404
       
EDDS 240020Z AUTO 26004KT 9999 FEW024 BKN038 16/13 Q1006
TAF EDDS 232300Z 2400/2424 22004KT 9999 SCT030 
     TEMPO 2407/2409 26015G25KT SHRA BKN020CB 
     BECMG 2409/2411 26010KT 
     BECMG 2417/2419 29005KT 
     BECMG 2419/2421 VRB02KT
       
EDXW 240020Z AUTO 14018KT 9999 // BKN023/// BKN026/// OVC035/// 14/13 Q0994
TAF EDXW 231700Z 2318/2321 13015KT CAVOK 
     BECMG 2318/2320 11020G30KT
       
ETOU 232356Z AUTO 27005KT 9999 BKN037 15/15 A2965 RMK AO2 SLP039 60013 T01520147 10191 20151 52023
TAF AMD ETOU 232000Z 2320/2418 22010G20KT 9999 BKN025 BKN040 510006 QNH2954INS 
     BECMG 2404/2405 23009KT 9000 -SHRA BKN020 OVC030 QNH2966INS 
     BECMG 2407/2408 25010G18KT 9999 NSW SCT050 QNH2969INS TX20/2412Z TN09/2405Z
LAST NO AMDS AFT 2320Z NEXT 2404Z
       
ETNT 240020Z AUTO /////KT //// // ////// 14/13 Q0997 ///
ETNW 240040Z 27016KT 9999 FEW010 SCT015 BKN035 15/14 Q0999 BLU
TAF ETNW 232200Z 2323/2423 15008KT 9999 NSW BKN100 
     TEMPO 2323/2401 20015G25KT 3000 SHRA SCT020 BKN050CB 
     BECMG 2323/2401 25010G20KT 9999 NSW BKN030 
     TEMPO 2401/2407 24015G25KT 6000 NSW BKN010 
     TEMPO 2407/2411 24015G25KT 5000 RA BKN015 
     TEMPO 2411/2418 27015G30KT 4000 SHRA BKN020TCU BY ETGL